createdAt,value
2018-07-20T00:00:47.981Z,99.90
2018-07-20T00:03:16.229Z,99.90
2018-07-20T00:05:44.495Z,99.90
2018-07-20T00:08:12.779Z,99.90
2018-07-20T00:10:41.056Z,99.90
2018-07-20T00:13:09.329Z,99.90
2018-07-20T00:15:37.641Z,99.90
2018-07-20T00:18:06.749Z,99.90
2018-07-20T00:20:35.008Z,99.90
2018-07-20T00:23:03.283Z,99.90
2018-07-20T00:25:31.541Z,99.90
2018-07-20T00:30:27.946Z,99.90
2018-07-20T00:32:56.209Z,99.90
2018-07-20T00:35:24.493Z,99.90
2018-07-20T00:37:52.757Z,99.90
2018-07-20T00:40:21.145Z,99.90
2018-07-20T00:42:50.215Z,99.90
2018-07-20T00:45:18.463Z,99.90
2018-07-20T00:47:46.743Z,99.90
2018-07-20T00:50:15.056Z,99.90
2018-07-20T00:52:43.341Z,99.90
2018-07-20T00:55:11.581Z,99.90
2018-07-20T00:57:39.901Z,99.90
2018-07-20T01:00:08.167Z,99.90
2018-07-20T01:02:36.443Z,99.90
2018-07-20T01:07:32.716Z,99.90
2018-07-20T01:10:00.984Z,99.90
2018-07-20T01:12:29.263Z,99.90
2018-07-20T01:14:57.663Z,99.90
2018-07-20T01:17:26.007Z,99.90
2018-07-20T01:19:54.329Z,99.90
2018-07-20T01:22:22.588Z,99.90
2018-07-20T01:24:50.872Z,99.90
2018-07-20T01:27:19.127Z,99.90
2018-07-20T01:29:47.389Z,99.90
2018-07-20T01:34:43.635Z,99.90
2018-07-20T01:37:11.931Z,99.90
2018-07-20T01:39:40.203Z,99.90
2018-07-20T01:44:36.809Z,99.90
2018-07-20T01:47:05.067Z,99.90
2018-07-20T01:49:33.343Z,99.90
2018-07-20T01:52:01.600Z,99.90
2018-07-20T01:54:29.913Z,99.90
2018-07-20T01:56:58.179Z,99.90
2018-07-20T01:59:26.415Z,99.90
2018-07-20T02:01:54.671Z,99.90
2018-07-20T02:04:22.909Z,99.90
2018-07-20T02:06:51.184Z,99.90
2018-07-20T02:09:19.438Z,99.90
2018-07-20T02:11:47.724Z,99.90
2018-07-20T02:16:44.049Z,99.90
2018-07-20T02:19:12.302Z,99.90
2018-07-20T02:21:40.577Z,99.90
2018-07-20T02:24:08.962Z,99.90
2018-07-20T02:26:37.216Z,99.90
2018-07-20T02:29:05.571Z,99.90
2018-07-20T02:31:33.948Z,99.90
2018-07-20T02:34:02.244Z,99.90
2018-07-20T02:36:30.502Z,99.90
2018-07-20T02:41:26.759Z,99.90
2018-07-20T02:43:55.048Z,99.90
2018-07-20T02:46:23.390Z,99.90
2018-07-20T02:48:51.631Z,99.90
2018-07-20T02:51:19.893Z,99.90
2018-07-20T02:53:48.260Z,99.90
2018-07-20T02:56:16.515Z,99.90
2018-07-20T02:58:44.758Z,99.90
2018-07-20T03:01:13.035Z,99.90
2018-07-20T03:03:41.319Z,99.90
2018-07-20T03:06:09.596Z,99.90
2018-07-20T03:08:37.868Z,99.90
2018-07-20T03:11:06.140Z,99.90
2018-07-20T03:13:34.405Z,99.90
2018-07-20T03:16:02.776Z,99.90
2018-07-20T03:18:31.077Z,99.90
2018-07-20T03:20:59.418Z,99.90
2018-07-20T03:23:27.820Z,99.90
2018-07-20T03:25:56.068Z,99.90
2018-07-20T03:28:24.352Z,99.90
2018-07-20T03:30:52.690Z,99.90
2018-07-20T03:33:20.964Z,99.90
2018-07-20T03:35:49.216Z,99.90
2018-07-20T03:38:17.498Z,99.90
2018-07-20T03:40:45.784Z,99.90
2018-07-20T03:43:14.035Z,99.90
2018-07-20T03:45:42.308Z,99.90
2018-07-20T03:48:10.560Z,99.90
2018-07-20T03:50:38.934Z,99.90
2018-07-20T03:53:07.177Z,99.90
2018-07-20T03:55:35.468Z,99.90
2018-07-20T03:58:03.751Z,99.90
2018-07-20T04:00:32.010Z,99.90
2018-07-20T04:03:00.271Z,99.90
2018-07-20T04:07:56.532Z,99.90
2018-07-20T04:10:24.810Z,99.90
2018-07-20T04:12:53.050Z,99.90
2018-07-20T04:15:21.356Z,99.90
2018-07-20T04:17:49.635Z,99.90
2018-07-20T04:20:17.897Z,99.90
2018-07-20T04:22:46.166Z,99.90
2018-07-20T04:25:14.433Z,99.90
2018-07-20T04:27:42.723Z,99.90
2018-07-20T04:30:12.659Z,99.90
2018-07-20T04:32:40.926Z,99.90
2018-07-20T04:35:09.964Z,99.90
2018-07-20T04:37:38.240Z,99.90
2018-07-20T04:40:06.830Z,99.90
2018-07-20T04:42:35.600Z,99.90
2018-07-20T04:47:31.988Z,99.90
2018-07-20T04:50:00.310Z,99.90
2018-07-20T04:52:28.668Z,99.90
2018-07-20T04:54:56.963Z,99.90
2018-07-20T04:57:25.286Z,99.90
2018-07-20T04:59:53.554Z,99.90
2018-07-20T05:02:21.852Z,99.90
2018-07-20T05:04:50.144Z,99.90
2018-07-20T05:07:18.452Z,99.90
2018-07-20T05:09:46.716Z,99.90
2018-07-20T05:12:14.993Z,99.90
2018-07-20T05:14:43.269Z,99.90
2018-07-20T05:17:11.534Z,99.90
2018-07-20T05:19:39.796Z,99.90
2018-07-20T05:22:08.070Z,99.90
2018-07-20T05:24:36.328Z,99.90
2018-07-20T05:27:04.590Z,99.90
2018-07-20T05:29:32.857Z,99.90
2018-07-20T05:32:01.111Z,99.90
2018-07-20T05:34:29.371Z,99.90
2018-07-20T05:39:25.639Z,99.90
2018-07-20T05:44:22.086Z,99.90
2018-07-20T05:46:50.342Z,99.90
2018-07-20T05:49:18.633Z,99.90
2018-07-20T05:51:46.903Z,99.90
2018-07-20T05:56:43.189Z,99.90
2018-07-20T05:59:11.497Z,99.90
2018-07-20T06:01:39.770Z,99.90
2018-07-20T06:04:08.142Z,99.90
2018-07-20T06:06:36.358Z,99.90
2018-07-20T06:09:08.281Z,99.90
2018-07-20T06:11:36.618Z,99.90
2018-07-20T06:14:06.028Z,99.90
2018-07-20T06:16:34.279Z,99.90
2018-07-20T06:19:02.740Z,99.90
2018-07-20T06:21:31.003Z,99.90
2018-07-20T06:23:59.239Z,99.90
2018-07-20T06:26:27.529Z,99.90
2018-07-20T06:28:55.812Z,99.90
2018-07-20T06:31:24.088Z,99.90
2018-07-20T06:33:52.357Z,99.90
2018-07-20T06:36:20.608Z,99.90
2018-07-20T06:38:48.882Z,99.90
2018-07-20T06:41:17.151Z,99.90
2018-07-20T06:43:45.422Z,99.90
2018-07-20T06:46:13.740Z,99.90
2018-07-20T06:48:42.022Z,99.90
2018-07-20T06:51:10.375Z,99.90
2018-07-20T06:53:38.658Z,99.90
2018-07-20T06:56:06.944Z,99.90
2018-07-20T06:58:35.328Z,99.90
2018-07-20T07:01:03.604Z,99.90
2018-07-20T07:03:31.975Z,99.90
2018-07-20T07:06:00.241Z,99.90
2018-07-20T07:08:28.526Z,99.90
2018-07-20T07:10:56.815Z,99.90
2018-07-20T07:13:25.090Z,99.90
2018-07-20T07:15:53.448Z,99.90
2018-07-20T07:20:49.747Z,97.60
2018-07-20T07:23:18.036Z,94.70
2018-07-20T07:25:46.343Z,92.90
2018-07-20T07:28:14.583Z,92.10
2018-07-20T07:30:42.903Z,91.20
2018-07-20T07:33:11.159Z,90.30
2018-07-20T07:35:39.478Z,90.50
2018-07-20T07:38:07.712Z,91.50
2018-07-20T07:40:35.981Z,92.20
2018-07-20T07:43:04.291Z,92.60
2018-07-20T07:45:32.563Z,92.70
2018-07-20T07:48:00.815Z,93.60
2018-07-20T07:52:57.099Z,93.80
2018-07-20T07:55:25.376Z,92.70
2018-07-20T07:57:53.651Z,91.80
2018-07-20T08:00:21.905Z,91.70
2018-07-20T08:02:50.195Z,90.30
2018-07-20T08:05:18.469Z,90.40
2018-07-20T08:07:46.767Z,91.20
2018-07-20T08:10:15.103Z,91.20
2018-07-20T08:12:43.464Z,91.50
2018-07-20T08:15:11.741Z,91.40
2018-07-20T08:17:40.004Z,91.10
2018-07-20T08:20:08.273Z,91.30
2018-07-20T08:22:36.556Z,90.70
2018-07-20T08:25:04.862Z,90.30
2018-07-20T08:27:33.164Z,87.70
2018-07-20T08:30:01.440Z,84.50
2018-07-20T08:32:29.711Z,83.40
2018-07-20T08:34:57.972Z,82.30
2018-07-20T08:37:26.254Z,81.70
2018-07-20T08:39:54.559Z,81.00
2018-07-20T08:42:22.864Z,78.40
2018-07-20T08:44:51.127Z,76.70
2018-07-20T08:47:19.466Z,75.90
2018-07-20T08:49:47.828Z,73.00
2018-07-20T08:52:16.089Z,72.10
2018-07-20T08:54:44.365Z,70.00
2018-07-20T08:57:12.666Z,68.40
2018-07-20T08:59:40.941Z,68.60
2018-07-20T09:02:09.440Z,68.90
2018-07-20T09:04:37.756Z,68.50
2018-07-20T09:07:06.025Z,66.70
2018-07-20T09:09:34.296Z,65.60
2018-07-20T09:12:02.560Z,65.00
2018-07-20T09:14:30.861Z,65.90
2018-07-20T09:16:59.195Z,65.70
2018-07-20T09:19:27.458Z,65.40
2018-07-20T09:21:55.744Z,63.50
2018-07-20T09:24:24.004Z,63.10
2018-07-20T09:26:52.289Z,62.40
2018-07-20T09:29:20.569Z,62.00
2018-07-20T09:31:48.936Z,61.10
2018-07-20T09:34:17.286Z,61.10
2018-07-20T09:36:45.601Z,59.90
2018-07-20T09:39:13.904Z,58.10
2018-07-20T09:41:42.209Z,56.90
2018-07-20T09:44:10.464Z,56.80
2018-07-20T09:46:38.756Z,57.20
2018-07-20T09:49:07.048Z,57.50
2018-07-20T09:51:35.298Z,57.70
2018-07-20T09:54:03.648Z,57.40
2018-07-20T09:56:31.906Z,57.40
2018-07-20T10:01:28.173Z,57.80
2018-07-20T10:03:56.478Z,57.80
2018-07-20T10:06:24.776Z,56.80
2018-07-20T10:08:53.056Z,56.50
2018-07-20T10:11:21.348Z,55.70
2018-07-20T10:13:49.624Z,54.80
2018-07-20T10:16:17.929Z,54.50
2018-07-20T10:18:46.193Z,55.00
2018-07-20T10:21:14.468Z,54.60
2018-07-20T10:23:42.753Z,54.30
2018-07-20T10:28:39.038Z,53.90
2018-07-20T10:31:07.340Z,53.60
2018-07-20T10:36:03.635Z,52.30
2018-07-20T10:38:31.892Z,51.50
2018-07-20T10:41:00.194Z,50.00
2018-07-20T10:43:28.495Z,51.20
2018-07-20T10:45:56.796Z,51.80
2018-07-20T10:48:25.191Z,51.40
2018-07-20T10:50:53.792Z,51.40
2018-07-20T10:53:22.058Z,49.70
2018-07-20T10:55:50.371Z,50.40
2018-07-20T10:58:18.657Z,48.50
2018-07-20T11:00:46.943Z,48.10
2018-07-20T11:03:15.219Z,48.90
2018-07-20T11:05:43.540Z,47.40
2018-07-20T11:08:11.814Z,47.40
2018-07-20T11:10:40.090Z,47.20
2018-07-20T11:13:08.384Z,49.00
2018-07-20T11:15:36.636Z,48.00
2018-07-20T11:18:05.115Z,48.20
2018-07-20T11:20:33.381Z,48.60
2018-07-20T11:23:01.692Z,50.10
2018-07-20T11:25:29.983Z,48.10
2018-07-20T11:27:58.295Z,48.00
2018-07-20T11:30:26.571Z,48.50
2018-07-20T11:32:54.824Z,47.70
2018-07-20T11:35:23.128Z,48.60
2018-07-20T11:37:51.425Z,48.50
2018-07-20T11:40:19.704Z,46.30
2018-07-20T11:42:47.980Z,46.20
2018-07-20T11:45:16.243Z,47.60
2018-07-20T11:47:44.501Z,47.20
2018-07-20T11:50:12.756Z,47.30
2018-07-20T11:52:41.054Z,47.40
2018-07-20T11:55:09.305Z,47.50
2018-07-20T11:57:37.568Z,45.40
2018-07-20T12:00:05.868Z,45.70
2018-07-20T12:02:37.165Z,45.80
2018-07-20T12:05:05.974Z,46.40
2018-07-20T12:07:35.368Z,46.10
2018-07-20T12:10:03.706Z,45.40
2018-07-20T12:12:31.988Z,45.30
2018-07-20T12:15:00.271Z,45.10
2018-07-20T12:17:28.540Z,46.00
2018-07-20T12:19:56.820Z,46.80
2018-07-20T12:22:25.071Z,45.50
2018-07-20T12:24:53.374Z,46.20
2018-07-20T12:27:21.671Z,45.00
2018-07-20T12:29:50.007Z,46.40
2018-07-20T12:32:18.298Z,46.50
2018-07-20T12:34:46.571Z,46.20
2018-07-20T12:39:43.089Z,47.30
2018-07-20T12:42:11.353Z,46.60
2018-07-20T12:44:39.634Z,47.30
2018-07-20T12:47:07.957Z,47.50
2018-07-20T12:49:36.224Z,46.80
2018-07-20T12:52:04.595Z,46.00
2018-07-20T12:57:00.911Z,44.90
2018-07-20T12:59:29.212Z,44.70
2018-07-20T13:01:57.512Z,44.70
2018-07-20T13:04:25.796Z,43.50
2018-07-20T13:06:54.059Z,44.20
2018-07-20T13:09:22.357Z,44.50
2018-07-20T13:11:50.632Z,44.00
2018-07-20T13:14:18.953Z,43.90
2018-07-20T13:16:47.217Z,45.00
2018-07-20T13:19:15.509Z,46.20
2018-07-20T13:21:43.787Z,46.80
2018-07-20T13:24:12.061Z,47.10
2018-07-20T13:26:40.351Z,47.80
2018-07-20T13:29:08.649Z,47.40
2018-07-20T13:31:36.943Z,46.70
2018-07-20T13:34:05.232Z,47.30
2018-07-20T13:36:33.533Z,47.40
2018-07-20T13:41:29.903Z,48.50
2018-07-20T13:43:58.169Z,50.60
2018-07-20T13:46:26.447Z,51.70
2018-07-20T13:48:54.718Z,52.90
2018-07-20T13:51:22.963Z,53.60
2018-07-20T13:53:51.247Z,55.30
2018-07-20T13:56:19.514Z,56.40
2018-07-20T13:58:47.783Z,57.80
2018-07-20T14:01:16.051Z,58.00
2018-07-20T14:03:44.329Z,58.40
2018-07-20T14:06:12.605Z,58.90
2018-07-20T14:08:40.903Z,59.30
2018-07-20T14:11:09.229Z,59.30
2018-07-20T14:13:37.502Z,58.80
2018-07-20T14:16:05.787Z,59.00
2018-07-20T14:21:02.095Z,59.00
2018-07-20T14:25:58.399Z,57.30
2018-07-20T14:28:26.675Z,56.30
2018-07-20T14:30:54.997Z,57.00
2018-07-20T14:33:23.340Z,56.40
2018-07-20T14:38:19.597Z,54.20
2018-07-20T14:40:47.872Z,52.30
2018-07-20T14:43:16.189Z,52.40
2018-07-20T14:45:44.507Z,52.80
2018-07-20T14:48:12.798Z,52.50
2018-07-20T14:50:41.101Z,51.20
2018-07-20T14:53:09.506Z,52.90
2018-07-20T14:55:37.984Z,51.70
2018-07-20T14:58:06.211Z,51.00
2018-07-20T15:00:34.525Z,50.40
2018-07-20T15:03:02.820Z,51.00
2018-07-20T15:05:31.116Z,51.80
2018-07-20T15:07:59.413Z,51.90
2018-07-20T15:10:27.708Z,50.90
2018-07-20T15:17:51.997Z,51.50
2018-07-20T15:20:20.279Z,51.80
2018-07-20T15:22:48.551Z,51.90
2018-07-20T15:25:16.821Z,52.50
2018-07-20T15:27:45.139Z,52.40
2018-07-20T15:30:13.414Z,52.10
2018-07-20T15:32:41.729Z,53.00
2018-07-20T15:35:10.011Z,52.80
2018-07-20T15:37:38.319Z,53.00
2018-07-20T15:40:06.665Z,54.50
2018-07-20T15:42:34.967Z,56.80
2018-07-20T15:45:03.333Z,57.30
2018-07-20T15:47:31.725Z,57.30
2018-07-20T15:49:59.907Z,57.20
2018-07-20T15:54:56.529Z,54.80
2018-07-20T15:57:24.849Z,55.00
2018-07-20T15:59:53.236Z,55.30
2018-07-20T16:02:21.577Z,55.70
2018-07-20T16:04:50.223Z,55.90
2018-07-20T16:07:18.508Z,56.00
2018-07-20T16:09:46.779Z,56.30
2018-07-20T16:12:15.445Z,56.20
2018-07-20T16:14:43.774Z,55.00
2018-07-20T16:17:12.079Z,55.30
2018-07-20T16:19:40.343Z,55.40
2018-07-20T16:22:08.682Z,55.00
2018-07-20T16:24:37.071Z,53.90
2018-07-20T16:27:05.603Z,52.90
2018-07-20T16:29:33.898Z,53.30
2018-07-20T16:32:02.192Z,53.00
2018-07-20T16:34:30.488Z,50.90
2018-07-20T16:36:58.764Z,51.20
2018-07-20T16:39:27.032Z,51.60
2018-07-20T16:41:55.327Z,52.10
2018-07-20T16:44:23.630Z,52.50
2018-07-20T16:46:51.891Z,53.30
2018-07-20T16:49:20.156Z,53.70
2018-07-20T16:51:48.416Z,53.50
2018-07-20T16:54:16.720Z,52.40
2018-07-20T16:59:13.107Z,52.50
2018-07-20T17:01:41.386Z,52.60
2018-07-20T17:04:09.668Z,52.10
2018-07-20T17:06:38.008Z,51.00
2018-07-20T17:09:09.107Z,51.30
2018-07-20T17:11:37.366Z,51.80
2018-07-20T17:14:05.741Z,51.80
2018-07-20T17:16:34.026Z,52.20
2018-07-20T17:19:02.333Z,51.80
2018-07-20T17:21:30.656Z,52.20
2018-07-20T17:23:59.359Z,52.40
2018-07-20T17:26:27.695Z,50.90
2018-07-20T17:28:55.978Z,50.50
2018-07-20T17:31:24.241Z,51.10
2018-07-20T17:33:52.539Z,51.80
2018-07-20T17:36:20.831Z,52.10
2018-07-20T17:38:49.153Z,52.40
2018-07-20T17:41:17.748Z,52.90
2018-07-20T17:43:46.114Z,53.20
2018-07-20T17:48:42.477Z,52.80
2018-07-20T17:51:10.833Z,53.00
2018-07-20T17:53:39.540Z,52.60
2018-07-20T17:56:07.851Z,52.50
2018-07-20T17:58:36.237Z,52.30
2018-07-20T18:01:04.611Z,51.90
2018-07-20T18:03:32.912Z,51.80
2018-07-20T18:06:01.179Z,52.00
2018-07-20T18:08:29.481Z,52.80
2018-07-20T18:10:57.783Z,53.30
2018-07-20T18:13:26.088Z,53.50
2018-07-20T18:15:54.386Z,53.70
2018-07-20T18:18:22.660Z,54.10
2018-07-20T18:20:50.938Z,54.60
2018-07-20T18:23:19.406Z,55.10
2018-07-20T18:25:47.699Z,55.50
2018-07-20T18:28:15.994Z,56.00
2018-07-20T18:30:44.264Z,56.30
2018-07-20T18:33:12.576Z,57.00
2018-07-20T18:35:40.863Z,56.90
2018-07-20T18:38:09.138Z,56.90
2018-07-20T18:40:37.463Z,57.20
2018-07-20T18:45:33.726Z,57.90
2018-07-20T18:48:02.019Z,58.30
2018-07-20T18:50:30.278Z,58.80
2018-07-20T18:52:58.578Z,59.30
2018-07-20T18:57:54.953Z,60.60
2018-07-20T19:00:23.220Z,60.60
2018-07-20T19:02:51.513Z,61.50
2018-07-20T19:05:19.839Z,62.20
2018-07-20T19:07:48.113Z,62.90
2018-07-20T19:10:16.504Z,63.40
2018-07-20T19:12:44.813Z,64.00
2018-07-20T19:15:13.147Z,64.50
2018-07-20T19:17:41.430Z,65.10
2018-07-20T19:20:09.769Z,65.40
2018-07-20T19:22:38.077Z,65.60
2018-07-20T19:25:06.377Z,66.00
2018-07-20T19:27:34.679Z,66.00
2018-07-20T19:30:03.130Z,66.40
2018-07-20T19:32:31.457Z,66.60
2018-07-20T19:34:59.711Z,67.20
2018-07-20T19:37:28.009Z,67.70
2018-07-20T19:39:56.305Z,68.20
2018-07-20T19:42:24.595Z,68.70
2018-07-20T19:44:52.859Z,69.10
2018-07-20T19:47:21.131Z,69.40
2018-07-20T19:49:49.428Z,70.10
2018-07-20T19:52:17.713Z,70.60
2018-07-20T19:54:46.025Z,70.60
2018-07-20T19:57:14.599Z,70.60
2018-07-20T19:59:42.911Z,70.50
2018-07-20T20:04:39.545Z,71.60
2018-07-20T20:07:08.171Z,72.10
2018-07-20T20:12:04.547Z,77.30
2018-07-20T20:14:32.845Z,78.50
2018-07-20T20:17:01.115Z,79.60
2018-07-20T20:19:29.418Z,80.80
2018-07-20T20:21:57.695Z,81.60
2018-07-20T20:24:25.971Z,82.30
2018-07-20T20:26:54.249Z,83.40
2018-07-20T20:29:22.594Z,84.40
2018-07-20T20:31:50.835Z,85.90
2018-07-20T20:34:19.126Z,87.10
2018-07-20T20:36:47.428Z,88.30
2018-07-20T20:39:16.762Z,89.50
2018-07-20T20:44:13.091Z,89.90
2018-07-20T20:46:41.381Z,90.00
2018-07-20T20:49:09.666Z,90.20
2018-07-20T20:51:38.075Z,90.30
2018-07-20T20:54:06.954Z,90.60
2018-07-20T20:56:35.246Z,90.80
2018-07-20T21:01:31.658Z,91.60
2018-07-20T21:03:59.924Z,92.30
2018-07-20T21:06:28.171Z,92.90
2018-07-20T21:11:24.479Z,94.30
2018-07-20T21:13:52.778Z,94.70
2018-07-20T21:16:21.055Z,95.30
2018-07-20T21:18:49.365Z,95.70
2018-07-20T21:21:17.711Z,96.10
2018-07-20T21:23:46.019Z,96.60
2018-07-20T21:26:14.355Z,96.80
2018-07-20T21:28:42.628Z,97.40
2018-07-20T21:31:10.913Z,97.90
2018-07-20T21:33:39.205Z,98.80
2018-07-20T21:36:07.545Z,99.60
2018-07-20T21:38:35.845Z,99.90
2018-07-20T21:41:04.241Z,99.90
2018-07-20T21:43:32.573Z,99.90
2018-07-20T21:46:00.916Z,99.90
2018-07-20T21:48:29.237Z,99.90
2018-07-20T21:50:57.565Z,99.90
2018-07-20T21:53:25.839Z,99.90
2018-07-20T21:58:22.183Z,99.90
2018-07-20T22:03:18.588Z,99.90
2018-07-20T22:05:46.884Z,99.90
2018-07-20T22:08:15.258Z,99.90
2018-07-20T22:10:43.504Z,99.90
2018-07-20T22:15:39.922Z,99.90
2018-07-20T22:18:08.204Z,99.90
2018-07-20T22:20:36.540Z,99.90
2018-07-20T22:28:00.962Z,99.90
2018-07-20T22:30:29.304Z,99.90
2018-07-20T22:32:57.591Z,99.90
2018-07-20T22:35:25.909Z,99.90
2018-07-20T22:37:54.216Z,99.90
2018-07-20T22:40:22.571Z,99.90
2018-07-20T22:42:50.919Z,99.90
2018-07-20T22:45:19.206Z,99.90
2018-07-20T22:47:47.496Z,99.90
2018-07-20T22:50:15.853Z,99.90
2018-07-20T22:52:44.127Z,99.90
2018-07-20T22:55:12.408Z,99.90
2018-07-20T22:57:40.703Z,99.90
2018-07-20T23:00:09.015Z,99.90
2018-07-20T23:02:37.284Z,99.90
2018-07-20T23:05:05.829Z,99.90
2018-07-20T23:07:34.139Z,99.90
2018-07-20T23:10:02.416Z,99.90
2018-07-20T23:12:30.687Z,99.90
2018-07-20T23:14:58.952Z,99.90
2018-07-20T23:19:55.239Z,99.90
2018-07-20T23:22:23.541Z,99.90
2018-07-20T23:24:51.819Z,99.90
2018-07-20T23:27:20.097Z,99.90
2018-07-20T23:29:48.399Z,99.90
2018-07-20T23:32:16.664Z,99.90
2018-07-20T23:34:44.960Z,99.90
2018-07-20T23:37:13.227Z,99.90
2018-07-20T23:39:41.523Z,99.90
2018-07-20T23:42:09.884Z,99.90
2018-07-20T23:44:38.167Z,99.90
2018-07-20T23:47:06.444Z,99.90
2018-07-20T23:49:34.747Z,99.90
2018-07-20T23:52:03.057Z,99.90
2018-07-20T23:54:31.365Z,99.90
2018-07-20T23:56:59.635Z,99.90
